sensor_id;sensor_type;location;lat;lon;timestamp;P1;durP1;ratioP1;P2;durP2;ratioP2
64498;SDS011;51087;55.718;21.122;2023-07-09T00:30:24;17.42;;;5.32;;
64498;SDS011;51087;55.718;21.122;2023-07-09T00:32:49;9.20;;;5.15;;
64498;SDS011;51087;55.718;21.122;2023-07-09T00:35:17;9.52;;;5.85;;
64498;SDS011;51087;55.718;21.122;2023-07-09T00:37:43;9.80;;;5.95;;
64498;SDS011;51087;55.718;21.122;2023-07-09T00:40:10;11.57;;;6.30;;
64498;SDS011;51087;55.718;21.122;2023-07-09T00:42:42;10.80;;;5.95;;
64498;SDS011;51087;55.718;21.122;2023-07-09T00:45:16;8.95;;;6.13;;
64498;SDS011;51087;55.718;21.122;2023-07-09T00:50:41;9.90;;;5.68;;
64498;SDS011;51087;55.718;21.122;2023-07-09T00:53:17;8.05;;;4.95;;
64498;SDS011;51087;55.718;21.122;2023-07-09T00:55:52;10.95;;;5.25;;
64498;SDS011;51087;55.718;21.122;2023-07-09T00:58:21;11.02;;;5.47;;
64498;SDS011;51087;55.718;21.122;2023-07-09T01:00:54;13.95;;;5.25;;
64498;SDS011;51087;55.718;21.122;2023-07-09T01:05:52;12.73;;;5.47;;
64498;SDS011;51087;55.718;21.122;2023-07-09T01:08:20;11.02;;;5.13;;
64498;SDS011;51087;55.718;21.122;2023-07-09T01:10:46;7.45;;;5.13;;
64498;SDS011;51087;55.718;21.122;2023-07-09T01:13:12;8.82;;;5.25;;
64498;SDS011;51087;55.718;21.122;2023-07-09T01:15:37;10.32;;;5.05;;
64498;SDS011;51087;55.718;21.122;2023-07-09T01:18:03;8.30;;;5.30;;
64498;SDS011;51087;55.718;21.122;2023-07-09T01:20:29;10.73;;;5.47;;
64498;SDS011;51087;55.718;21.122;2023-07-09T01:22:56;9.38;;;5.40;;
64498;SDS011;51087;55.718;21.122;2023-07-09T01:25:22;10.00;;;5.47;;
64498;SDS011;51087;55.718;21.122;2023-07-09T01:27:51;11.05;;;5.13;;
64498;SDS011;51087;55.718;21.122;2023-07-09T01:30:21;12.82;;;5.80;;
64498;SDS011;51087;55.718;21.122;2023-07-09T01:32:56;8.73;;;5.53;;
64498;SDS011;51087;55.718;21.122;2023-07-09T01:35:23;16.75;;;5.60;;
64498;SDS011;51087;55.718;21.122;2023-07-09T01:37:49;11.60;;;5.50;;
64498;SDS011;51087;55.718;21.122;2023-07-09T01:40:17;9.55;;;5.53;;
64498;SDS011;51087;55.718;21.122;2023-07-09T01:42:44;9.82;;;5.40;;
64498;SDS011;51087;55.718;21.122;2023-07-09T01:45:10;7.80;;;4.97;;
64498;SDS011;51087;55.718;21.122;2023-07-09T01:47:36;12.20;;;5.45;;
64498;SDS011;51087;55.718;21.122;2023-07-09T01:50:03;10.38;;;5.35;;
64498;SDS011;51087;55.718;21.122;2023-07-09T01:52:32;9.25;;;5.30;;
64498;SDS011;51087;55.718;21.122;2023-07-09T01:54:58;9.30;;;5.40;;
64498;SDS011;51087;55.718;21.122;2023-07-09T01:57:25;8.35;;;5.25;;
64498;SDS011;51087;55.718;21.122;2023-07-09T01:59:58;10.85;;;5.10;;
64498;SDS011;51087;55.718;21.122;2023-07-09T02:02:24;8.48;;;5.22;;
64498;SDS011;51087;55.718;21.122;2023-07-09T02:04:51;9.45;;;5.03;;
64498;SDS011;51087;55.718;21.122;2023-07-09T02:07:18;6.90;;;5.13;;
64498;SDS011;51087;55.718;21.122;2023-07-09T02:09:45;8.13;;;5.28;;
64498;SDS011;51087;55.718;21.122;2023-07-09T02:12:11;7.68;;;5.32;;
64498;SDS011;51087;55.718;21.122;2023-07-09T02:14:38;8.88;;;5.50;;
64498;SDS011;51087;55.718;21.122;2023-07-09T02:17:04;8.70;;;5.82;;
64498;SDS011;51087;55.718;21.122;2023-07-09T02:19:30;10.60;;;6.13;;
64498;SDS011;51087;55.718;21.122;2023-07-09T02:21:56;12.40;;;6.88;;
64498;SDS011;51087;55.718;21.122;2023-07-09T02:24:22;13.13;;;6.53;;
64498;SDS011;51087;55.718;21.122;2023-07-09T02:26:52;10.18;;;6.22;;
64498;SDS011;51087;55.718;21.122;2023-07-09T02:29:22;12.25;;;6.15;;
64498;SDS011;51087;55.718;21.122;2023-07-09T02:31:49;10.48;;;6.18;;
64498;SDS011;51087;55.718;21.122;2023-07-09T02:34:16;10.40;;;6.13;;
64498;SDS011;51087;55.718;21.122;2023-07-09T02:36:42;11.15;;;6.68;;
64498;SDS011;51087;55.718;21.122;2023-07-09T02:39:09;9.80;;;6.28;;
64498;SDS011;51087;55.718;21.122;2023-07-09T02:41:35;9.75;;;6.85;;
64498;SDS011;51087;55.718;21.122;2023-07-09T02:44:01;9.50;;;6.60;;
64498;SDS011;51087;55.718;21.122;2023-07-09T02:46:26;10.98;;;6.88;;
64498;SDS011;51087;55.718;21.122;2023-07-09T02:48:52;10.85;;;7.10;;
64498;SDS011;51087;55.718;21.122;2023-07-09T02:51:17;8.55;;;6.95;;
64498;SDS011;51087;55.718;21.122;2023-07-09T02:53:42;9.52;;;6.78;;
64498;SDS011;51087;55.718;21.122;2023-07-09T02:56:08;12.30;;;6.97;;
64498;SDS011;51087;55.718;21.122;2023-07-09T02:58:33;9.52;;;6.45;;
64498;SDS011;51087;55.718;21.122;2023-07-09T03:00:59;11.70;;;6.15;;
64498;SDS011;51087;55.718;21.122;2023-07-09T03:03:24;8.73;;;6.65;;
64498;SDS011;51087;55.718;21.122;2023-07-09T03:05:49;11.32;;;6.78;;
64498;SDS011;51087;55.718;21.122;2023-07-09T03:08:15;13.80;;;6.25;;
64498;SDS011;51087;55.718;21.122;2023-07-09T03:10:40;7.93;;;5.75;;
64498;SDS011;51087;55.718;21.122;2023-07-09T03:13:06;10.38;;;5.75;;
64498;SDS011;51087;55.718;21.122;2023-07-09T03:15:32;10.90;;;5.60;;
64498;SDS011;51087;55.718;21.122;2023-07-09T03:17:57;7.93;;;5.28;;
64498;SDS011;51087;55.718;21.122;2023-07-09T03:20:23;10.60;;;5.43;;
64498;SDS011;51087;55.718;21.122;2023-07-09T03:22:49;8.35;;;5.40;;
64498;SDS011;51087;55.718;21.122;2023-07-09T03:25:14;8.10;;;5.13;;
64498;SDS011;51087;55.718;21.122;2023-07-09T03:27:40;11.40;;;5.85;;
64498;SDS011;51087;55.718;21.122;2023-07-09T03:30:05;9.18;;;5.00;;
64498;SDS011;51087;55.718;21.122;2023-07-09T03:32:31;9.63;;;5.05;;
64498;SDS011;51087;55.718;21.122;2023-07-09T03:34:57;8.45;;;4.50;;
64498;SDS011;51087;55.718;21.122;2023-07-09T03:37:22;5.30;;;3.63;;
64498;SDS011;51087;55.718;21.122;2023-07-09T03:39:47;6.95;;;3.80;;
64498;SDS011;51087;55.718;21.122;2023-07-09T03:42:13;5.15;;;3.50;;
64498;SDS011;51087;55.718;21.122;2023-07-09T03:44:38;4.35;;;3.15;;
64498;SDS011;51087;55.718;21.122;2023-07-09T03:47:05;4.60;;;3.15;;
64498;SDS011;51087;55.718;21.122;2023-07-09T03:49:31;4.65;;;3.40;;
64498;SDS011;51087;55.718;21.122;2023-07-09T03:51:57;4.57;;;3.17;;
64498;SDS011;51087;55.718;21.122;2023-07-09T03:54:23;4.60;;;3.28;;
64498;SDS011;51087;55.718;21.122;2023-07-09T03:56:48;4.55;;;3.00;;
64498;SDS011;51087;55.718;21.122;2023-07-09T03:59:14;3.35;;;2.97;;
64498;SDS011;51087;55.718;21.122;2023-07-09T04:01:39;6.68;;;3.33;;
64498;SDS011;51087;55.718;21.122;2023-07-09T04:04:11;5.00;;;3.30;;
64498;SDS011;51087;55.718;21.122;2023-07-09T04:06:37;3.88;;;3.28;;
64498;SDS011;51087;55.718;21.122;2023-07-09T04:09:03;5.63;;;3.50;;
64498;SDS011;51087;55.718;21.122;2023-07-09T04:11:28;4.90;;;3.70;;
64498;SDS011;51087;55.718;21.122;2023-07-09T04:13:54;6.88;;;3.70;;
64498;SDS011;51087;55.718;21.122;2023-07-09T04:16:19;4.05;;;3.65;;
64498;SDS011;51087;55.718;21.122;2023-07-09T04:18:45;8.68;;;4.13;;
64498;SDS011;51087;55.718;21.122;2023-07-09T04:21:10;4.60;;;3.65;;
64498;SDS011;51087;55.718;21.122;2023-07-09T04:23:35;6.38;;;4.13;;
64498;SDS011;51087;55.718;21.122;2023-07-09T04:26:01;5.47;;;3.85;;
64498;SDS011;51087;55.718;21.122;2023-07-09T04:28:28;5.10;;;3.70;;
64498;SDS011;51087;55.718;21.122;2023-07-09T04:30:55;4.68;;;4.10;;
64498;SDS011;51087;55.718;21.122;2023-07-09T04:33:21;8.80;;;4.40;;
64498;SDS011;51087;55.718;21.122;2023-07-09T04:35:46;4.97;;;4.47;;
64498;SDS011;51087;55.718;21.122;2023-07-09T04:38:12;6.28;;;4.38;;
64498;SDS011;51087;55.718;21.122;2023-07-09T04:40:38;6.38;;;4.32;;
64498;SDS011;51087;55.718;21.122;2023-07-09T04:43:04;6.57;;;4.07;;
64498;SDS011;51087;55.718;21.122;2023-07-09T04:45:29;6.32;;;4.60;;
64498;SDS011;51087;55.718;21.122;2023-07-09T04:47:55;4.85;;;4.10;;
64498;SDS011;51087;55.718;21.122;2023-07-09T04:50:20;9.13;;;4.57;;
64498;SDS011;51087;55.718;21.122;2023-07-09T04:52:45;5.68;;;4.15;;
64498;SDS011;51087;55.718;21.122;2023-07-09T04:55:11;7.18;;;4.25;;
64498;SDS011;51087;55.718;21.122;2023-07-09T04:57:36;9.85;;;4.22;;
64498;SDS011;51087;55.718;21.122;2023-07-09T05:00:03;8.10;;;4.45;;
64498;SDS011;51087;55.718;21.122;2023-07-09T05:02:33;12.02;;;4.80;;
64498;SDS011;51087;55.718;21.122;2023-07-09T05:04:58;7.70;;;4.18;;
64498;SDS011;51087;55.718;21.122;2023-07-09T05:07:24;10.10;;;4.53;;
64498;SDS011;51087;55.718;21.122;2023-07-09T05:09:50;8.55;;;4.10;;
64498;SDS011;51087;55.718;21.122;2023-07-09T05:12:15;8.45;;;3.85;;
64498;SDS011;51087;55.718;21.122;2023-07-09T05:14:41;9.40;;;4.00;;
64498;SDS011;51087;55.718;21.122;2023-07-09T05:17:06;11.95;;;3.53;;
64498;SDS011;51087;55.718;21.122;2023-07-09T05:19:33;9.15;;;3.88;;
64498;SDS011;51087;55.718;21.122;2023-07-09T05:21:58;9.10;;;4.15;;
64498;SDS011;51087;55.718;21.122;2023-07-09T05:24:24;9.38;;;3.33;;
64498;SDS011;51087;55.718;21.122;2023-07-09T05:26:49;12.13;;;3.38;;
64498;SDS011;51087;55.718;21.122;2023-07-09T05:29:15;9.23;;;3.50;;
64498;SDS011;51087;55.718;21.122;2023-07-09T05:31:40;7.68;;;3.88;;
64498;SDS011;51087;55.718;21.122;2023-07-09T05:34:07;10.88;;;3.50;;
64498;SDS011;51087;55.718;21.122;2023-07-09T05:36:33;6.25;;;3.42;;
64498;SDS011;51087;55.718;21.122;2023-07-09T05:38:58;8.05;;;3.20;;
64498;SDS011;51087;55.718;21.122;2023-07-09T05:41:23;6.82;;;3.20;;
64498;SDS011;51087;55.718;21.122;2023-07-09T05:43:49;4.05;;;2.70;;
64498;SDS011;51087;55.718;21.122;2023-07-09T05:46:16;6.28;;;3.53;;
64498;SDS011;51087;55.718;21.122;2023-07-09T05:48:41;6.22;;;3.10;;
64498;SDS011;51087;55.718;21.122;2023-07-09T05:51:07;5.07;;;3.00;;
64498;SDS011;51087;55.718;21.122;2023-07-09T05:53:32;9.10;;;3.30;;
64498;SDS011;51087;55.718;21.122;2023-07-09T05:55:58;6.78;;;2.60;;
64498;SDS011;51087;55.718;21.122;2023-07-09T05:58:24;5.70;;;2.67;;
64498;SDS011;51087;55.718;21.122;2023-07-09T06:00:50;5.07;;;2.70;;
64498;SDS011;51087;55.718;21.122;2023-07-09T06:03:22;7.78;;;3.15;;
64498;SDS011;51087;55.718;21.122;2023-07-09T06:05:49;9.88;;;3.35;;
64498;SDS011;51087;55.718;21.122;2023-07-09T06:08:15;9.50;;;4.55;;
64498;SDS011;51087;55.718;21.122;2023-07-09T06:13:24;7.32;;;3.47;;
64498;SDS011;51087;55.718;21.122;2023-07-09T06:15:50;5.13;;;2.58;;
64498;SDS011;51087;55.718;21.122;2023-07-09T06:18:17;2.88;;;2.20;;
64498;SDS011;51087;55.718;21.122;2023-07-09T06:20:47;4.80;;;2.00;;
64498;SDS011;51087;55.718;21.122;2023-07-09T06:23:14;3.50;;;2.03;;
64498;SDS011;51087;55.718;21.122;2023-07-09T06:25:40;3.45;;;2.03;;
64498;SDS011;51087;55.718;21.122;2023-07-09T06:28:05;3.45;;;1.95;;
64498;SDS011;51087;55.718;21.122;2023-07-09T06:30:30;3.83;;;2.00;;
64498;SDS011;51087;55.718;21.122;2023-07-09T06:32:56;6.47;;;2.47;;
64498;SDS011;51087;55.718;21.122;2023-07-09T06:35:21;3.25;;;2.05;;
64498;SDS011;51087;55.718;21.122;2023-07-09T06:37:47;3.33;;;2.10;;
64498;SDS011;51087;55.718;21.122;2023-07-09T06:40:12;4.53;;;2.10;;
64498;SDS011;51087;55.718;21.122;2023-07-09T06:42:38;3.88;;;2.38;;
64498;SDS011;51087;55.718;21.122;2023-07-09T06:45:03;3.58;;;2.60;;
64498;SDS011;51087;55.718;21.122;2023-07-09T06:47:29;4.80;;;2.92;;
64498;SDS011;51087;55.718;21.122;2023-07-09T06:49:55;4.32;;;2.45;;
64498;SDS011;51087;55.718;21.122;2023-07-09T06:52:20;5.28;;;2.60;;
64498;SDS011;51087;55.718;21.122;2023-07-09T06:54:47;3.97;;;2.55;;
64498;SDS011;51087;55.718;21.122;2023-07-09T06:57:14;3.72;;;2.25;;
64498;SDS011;51087;55.718;21.122;2023-07-09T06:59:39;3.92;;;2.85;;
64498;SDS011;51087;55.718;21.122;2023-07-09T07:02:05;7.05;;;2.90;;
64498;SDS011;51087;55.718;21.122;2023-07-09T07:04:31;3.53;;;2.50;;
64498;SDS011;51087;55.718;21.122;2023-07-09T07:06:56;3.53;;;2.85;;
64498;SDS011;51087;55.718;21.122;2023-07-09T07:09:22;6.32;;;2.70;;
64498;SDS011;51087;55.718;21.122;2023-07-09T07:11:49;4.78;;;2.90;;
64498;SDS011;51087;55.718;21.122;2023-07-09T07:14:14;7.57;;;2.83;;
64498;SDS011;51087;55.718;21.122;2023-07-09T07:16:40;3.50;;;2.50;;
64498;SDS011;51087;55.718;21.122;2023-07-09T07:19:06;4.22;;;2.70;;
64498;SDS011;51087;55.718;21.122;2023-07-09T07:21:31;3.25;;;2.53;;
64498;SDS011;51087;55.718;21.122;2023-07-09T07:23:57;3.72;;;2.45;;
64498;SDS011;51087;55.718;21.122;2023-07-09T07:26:22;5.30;;;2.75;;
64498;SDS011;51087;55.718;21.122;2023-07-09T07:28:48;3.65;;;2.50;;
64498;SDS011;51087;55.718;21.122;2023-07-09T07:31:15;4.70;;;2.60;;
64498;SDS011;51087;55.718;21.122;2023-07-09T07:33:41;3.80;;;2.70;;
64498;SDS011;51087;55.718;21.122;2023-07-09T07:36:07;6.38;;;2.35;;
64498;SDS011;51087;55.718;21.122;2023-07-09T07:38:33;3.03;;;2.20;;
64498;SDS011;51087;55.718;21.122;2023-07-09T07:40:59;3.60;;;2.47;;
64498;SDS011;51087;55.718;21.122;2023-07-09T07:43:25;4.32;;;2.30;;
64498;SDS011;51087;55.718;21.122;2023-07-09T07:45:51;4.85;;;2.58;;
64498;SDS011;51087;55.718;21.122;2023-07-09T07:48:16;2.17;;;1.77;;
64498;SDS011;51087;55.718;21.122;2023-07-09T07:50:42;3.78;;;2.20;;
64498;SDS011;51087;55.718;21.122;2023-07-09T07:53:08;3.70;;;2.35;;
64498;SDS011;51087;55.718;21.122;2023-07-09T07:55:34;3.33;;;2.28;;
64498;SDS011;51087;55.718;21.122;2023-07-09T07:58:01;2.50;;;1.60;;
64498;SDS011;51087;55.718;21.122;2023-07-09T08:00:29;2.95;;;2.20;;
64498;SDS011;51087;55.718;21.122;2023-07-09T08:02:55;3.70;;;2.15;;
64498;SDS011;51087;55.718;21.122;2023-07-09T08:05:20;2.80;;;2.30;;
64498;SDS011;51087;55.718;21.122;2023-07-09T08:07:46;3.40;;;1.90;;
64498;SDS011;51087;55.718;21.122;2023-07-09T08:10:12;5.15;;;2.42;;
64498;SDS011;51087;55.718;21.122;2023-07-09T08:12:38;2.40;;;2.00;;
64498;SDS011;51087;55.718;21.122;2023-07-09T08:15:03;2.80;;;2.13;;
64498;SDS011;51087;55.718;21.122;2023-07-09T08:17:31;4.15;;;2.10;;
64498;SDS011;51087;55.718;21.122;2023-07-09T08:19:56;3.40;;;2.17;;
64498;SDS011;51087;55.718;21.122;2023-07-09T08:22:22;4.60;;;2.15;;
64498;SDS011;51087;55.718;21.122;2023-07-09T08:24:48;3.88;;;2.50;;
64498;SDS011;51087;55.718;21.122;2023-07-09T08:27:16;5.63;;;2.67;;
64498;SDS011;51087;55.718;21.122;2023-07-09T08:29:42;3.97;;;2.35;;
64498;SDS011;51087;55.718;21.122;2023-07-09T08:32:08;3.97;;;2.50;;
64498;SDS011;51087;55.718;21.122;2023-07-09T08:34:35;4.22;;;2.58;;
64498;SDS011;51087;55.718;21.122;2023-07-09T08:37:05;6.85;;;2.13;;
64498;SDS011;51087;55.718;21.122;2023-07-09T08:39:31;5.15;;;2.15;;
64498;SDS011;51087;55.718;21.122;2023-07-09T08:47:18;1.27;;;1.17;;
64498;SDS011;51087;55.718;21.122;2023-07-09T08:50:14;1.92;;;1.50;;
64498;SDS011;51087;55.718;21.122;2023-07-09T08:52:43;2.42;;;1.73;;
64498;SDS011;51087;55.718;21.122;2023-07-09T08:55:20;3.05;;;1.80;;
64498;SDS011;51087;55.718;21.122;2023-07-09T08:57:52;3.10;;;1.98;;
64498;SDS011;51087;55.718;21.122;2023-07-09T09:02:49;3.30;;;2.03;;
64498;SDS011;51087;55.718;21.122;2023-07-09T09:05:21;4.28;;;2.20;;
64498;SDS011;51087;55.718;21.122;2023-07-09T09:07:51;4.43;;;2.53;;
64498;SDS011;51087;55.718;21.122;2023-07-09T09:10:29;3.60;;;2.00;;
64498;SDS011;51087;55.718;21.122;2023-07-09T09:15:34;3.60;;;1.95;;
64498;SDS011;51087;55.718;21.122;2023-07-09T09:18:22;2.92;;;1.85;;
64498;SDS011;51087;55.718;21.122;2023-07-09T09:20:55;5.00;;;2.35;;
64498;SDS011;51087;55.718;21.122;2023-07-09T09:23:29;3.90;;;1.40;;
64498;SDS011;51087;55.718;21.122;2023-07-09T09:26:02;2.67;;;2.03;;
64498;SDS011;51087;55.718;21.122;2023-07-09T09:28:39;4.35;;;2.25;;
64498;SDS011;51087;55.718;21.122;2023-07-09T09:31:04;2.75;;;1.63;;
64498;SDS011;51087;55.718;21.122;2023-07-09T09:33:42;2.63;;;1.58;;
64498;SDS011;51087;55.718;21.122;2023-07-09T09:36:20;4.50;;;2.17;;
64498;SDS011;51087;55.718;21.122;2023-07-09T09:38:47;2.83;;;1.98;;
64498;SDS011;51087;55.718;21.122;2023-07-09T09:41:16;2.83;;;1.98;;
64498;SDS011;51087;55.718;21.122;2023-07-09T09:43:48;3.83;;;1.77;;
64498;SDS011;51087;55.718;21.122;2023-07-09T09:46:17;3.92;;;1.60;;
64498;SDS011;51087;55.718;21.122;2023-07-09T09:48:44;4.28;;;2.00;;
64498;SDS011;51087;55.718;21.122;2023-07-09T09:51:12;2.47;;;1.60;;
64498;SDS011;51087;55.718;21.122;2023-07-09T09:53:40;3.55;;;1.65;;
64498;SDS011;51087;55.718;21.122;2023-07-09T09:56:15;6.47;;;1.67;;
64498;SDS011;51087;55.718;21.122;2023-07-09T09:58:43;2.03;;;1.40;;
64498;SDS011;51087;55.718;21.122;2023-07-09T10:01:16;2.22;;;1.10;;
64498;SDS011;51087;55.718;21.122;2023-07-09T10:03:43;4.43;;;1.75;;
64498;SDS011;51087;55.718;21.122;2023-07-09T10:06:16;3.45;;;1.70;;
64498;SDS011;51087;55.718;21.122;2023-07-09T10:14:38;10.02;;;2.85;;
64498;SDS011;51087;55.718;21.122;2023-07-09T10:17:22;8.55;;;3.00;;
64498;SDS011;51087;55.718;21.122;2023-07-09T10:20:02;5.18;;;3.00;;
64498;SDS011;51087;55.718;21.122;2023-07-09T10:22:50;4.63;;;2.25;;
64498;SDS011;51087;55.718;21.122;2023-07-09T10:25:23;6.68;;;3.55;;
64498;SDS011;51087;55.718;21.122;2023-07-09T10:33:30;4.63;;;2.22;;
64498;SDS011;51087;55.718;21.122;2023-07-09T10:39:21;4.03;;;2.90;;
64498;SDS011;51087;55.718;21.122;2023-07-09T10:41:51;4.78;;;2.20;;
64498;SDS011;51087;55.718;21.122;2023-07-09T10:44:28;5.07;;;2.67;;
64498;SDS011;51087;55.718;21.122;2023-07-09T10:46:58;6.22;;;2.25;;
64498;SDS011;51087;55.718;21.122;2023-07-09T10:49:32;5.28;;;2.92;;
64498;SDS011;51087;55.718;21.122;2023-07-09T10:52:06;4.00;;;2.60;;
64498;SDS011;51087;55.718;21.122;2023-07-09T10:54:39;2.63;;;1.88;;
64498;SDS011;51087;55.718;21.122;2023-07-09T10:57:22;4.82;;;2.50;;
64498;SDS011;51087;55.718;21.122;2023-07-09T10:59:54;5.78;;;2.67;;
64498;SDS011;51087;55.718;21.122;2023-07-09T11:02:26;4.15;;;2.50;;
64498;SDS011;51087;55.718;21.122;2023-07-09T11:04:58;5.90;;;2.20;;
64498;SDS011;51087;55.718;21.122;2023-07-09T11:09:58;2.70;;;1.58;;
64498;SDS011;51087;55.718;21.122;2023-07-09T11:12:32;3.78;;;2.45;;
64498;SDS011;51087;55.718;21.122;2023-07-09T11:17:45;7.88;;;1.92;;
64498;SDS011;51087;55.718;21.122;2023-07-09T11:20:17;2.22;;;1.50;;
64498;SDS011;51087;55.718;21.122;2023-07-09T11:22:50;3.33;;;1.70;;
64498;SDS011;51087;55.718;21.122;2023-07-09T11:25:27;3.17;;;1.70;;
64498;SDS011;51087;55.718;21.122;2023-07-09T11:28:05;3.95;;;1.33;;
64498;SDS011;51087;55.718;21.122;2023-07-09T11:30:31;3.53;;;1.60;;
64498;SDS011;51087;55.718;21.122;2023-07-09T11:32:58;2.58;;;1.75;;
64498;SDS011;51087;55.718;21.122;2023-07-09T11:35:29;4.10;;;2.00;;
64498;SDS011;51087;55.718;21.122;2023-07-09T11:38:15;3.03;;;1.70;;
64498;SDS011;51087;55.718;21.122;2023-07-09T11:40:47;4.38;;;1.58;;
64498;SDS011;51087;55.718;21.122;2023-07-09T11:43:27;3.45;;;1.40;;
64498;SDS011;51087;55.718;21.122;2023-07-09T11:45:58;3.05;;;1.70;;
64498;SDS011;51087;55.718;21.122;2023-07-09T11:48:36;3.10;;;1.23;;
64498;SDS011;51087;55.718;21.122;2023-07-09T11:51:10;2.03;;;1.23;;
64498;SDS011;51087;55.718;21.122;2023-07-09T11:53:52;4.53;;;1.60;;
64498;SDS011;51087;55.718;21.122;2023-07-09T11:56:19;2.05;;;1.33;;
64498;SDS011;51087;55.718;21.122;2023-07-09T11:58:50;3.72;;;1.50;;
64498;SDS011;51087;55.718;21.122;2023-07-09T12:01:18;3.35;;;1.30;;
64498;SDS011;51087;55.718;21.122;2023-07-09T12:03:46;3.15;;;1.60;;
64498;SDS011;51087;55.718;21.122;2023-07-09T12:06:22;1.92;;;1.20;;
64498;SDS011;51087;55.718;21.122;2023-07-09T12:08:48;1.95;;;1.40;;
64498;SDS011;51087;55.718;21.122;2023-07-09T12:13:45;2.33;;;1.35;;
64498;SDS011;51087;55.718;21.122;2023-07-09T12:16:21;2.28;;;1.50;;
64498;SDS011;51087;55.718;21.122;2023-07-09T12:18:46;2.22;;;1.50;;
64498;SDS011;51087;55.718;21.122;2023-07-09T12:21:12;4.70;;;1.67;;
64498;SDS011;51087;55.718;21.122;2023-07-09T12:23:39;5.75;;;2.20;;
64498;SDS011;51087;55.718;21.122;2023-07-09T12:26:05;5.28;;;1.92;;
64498;SDS011;51087;55.718;21.122;2023-07-09T12:28:31;4.45;;;1.95;;
64498;SDS011;51087;55.718;21.122;2023-07-09T12:30:57;4.45;;;1.48;;
64498;SDS011;51087;55.718;21.122;2023-07-09T12:33:23;2.92;;;1.60;;
64498;SDS011;51087;55.718;21.122;2023-07-09T12:35:57;2.22;;;1.55;;
64498;SDS011;51087;55.718;21.122;2023-07-09T12:38:26;5.57;;;2.00;;
64498;SDS011;51087;55.718;21.122;2023-07-09T12:40:54;3.63;;;1.70;;
64498;SDS011;51087;55.718;21.122;2023-07-09T12:43:26;5.47;;;2.10;;
64498;SDS011;51087;55.718;21.122;2023-07-09T12:45:54;2.95;;;1.70;;
64498;SDS011;51087;55.718;21.122;2023-07-09T12:48:23;2.95;;;1.65;;
64498;SDS011;51087;55.718;21.122;2023-07-09T12:50:53;4.20;;;2.33;;
64498;SDS011;51087;55.718;21.122;2023-07-09T12:53:21;4.22;;;2.63;;
64498;SDS011;51087;55.718;21.122;2023-07-09T12:55:51;3.53;;;2.05;;
64498;SDS011;51087;55.718;21.122;2023-07-09T12:58:20;4.00;;;1.90;;
64498;SDS011;51087;55.718;21.122;2023-07-09T13:00:51;6.85;;;2.00;;
64498;SDS011;51087;55.718;21.122;2023-07-09T13:03:20;3.75;;;2.20;;
64498;SDS011;51087;55.718;21.122;2023-07-09T13:05:55;2.65;;;1.90;;
64498;SDS011;51087;55.718;21.122;2023-07-09T13:08:22;3.13;;;1.95;;
64498;SDS011;51087;55.718;21.122;2023-07-09T13:10:49;3.58;;;1.90;;
64498;SDS011;51087;55.718;21.122;2023-07-09T13:13:23;3.15;;;1.92;;
64498;SDS011;51087;55.718;21.122;2023-07-09T13:15:56;6.15;;;2.08;;
64498;SDS011;51087;55.718;21.122;2023-07-09T13:18:25;2.72;;;1.80;;
64498;SDS011;51087;55.718;21.122;2023-07-09T13:20:51;3.55;;;2.20;;
64498;SDS011;51087;55.718;21.122;2023-07-09T13:23:28;3.20;;;1.70;;
64498;SDS011;51087;55.718;21.122;2023-07-09T13:25:57;2.65;;;1.90;;
64498;SDS011;51087;55.718;21.122;2023-07-09T13:28:24;4.47;;;1.95;;
64498;SDS011;51087;55.718;21.122;2023-07-09T13:30:52;4.50;;;2.20;;
64498;SDS011;51087;55.718;21.122;2023-07-09T13:33:20;4.53;;;2.50;;
64498;SDS011;51087;55.718;21.122;2023-07-09T13:35:46;2.83;;;1.90;;
64498;SDS011;51087;55.718;21.122;2023-07-09T13:38:17;4.97;;;2.40;;
64498;SDS011;51087;55.718;21.122;2023-07-09T13:40:44;4.05;;;2.05;;
64498;SDS011;51087;55.718;21.122;2023-07-09T13:43:15;4.78;;;2.40;;
64498;SDS011;51087;55.718;21.122;2023-07-09T13:45:44;3.95;;;2.17;;
64498;SDS011;51087;55.718;21.122;2023-07-09T13:48:14;3.17;;;1.90;;
64498;SDS011;51087;55.718;21.122;2023-07-09T13:50:42;4.55;;;2.33;;
64498;SDS011;51087;55.718;21.122;2023-07-09T13:53:19;3.53;;;1.90;;
64498;SDS011;51087;55.718;21.122;2023-07-09T13:55:46;5.22;;;2.10;;
64498;SDS011;51087;55.718;21.122;2023-07-09T13:58:13;4.53;;;1.80;;
64498;SDS011;51087;55.718;21.122;2023-07-09T14:00:40;4.68;;;2.00;;
64498;SDS011;51087;55.718;21.122;2023-07-09T14:03:23;3.80;;;2.00;;
64498;SDS011;51087;55.718;21.122;2023-07-09T14:05:51;4.07;;;1.92;;
64498;SDS011;51087;55.718;21.122;2023-07-09T14:08:17;4.03;;;2.08;;
64498;SDS011;51087;55.718;21.122;2023-07-09T14:10:45;4.18;;;1.98;;
64498;SDS011;51087;55.718;21.122;2023-07-09T14:13:15;4.30;;;1.90;;
64498;SDS011;51087;55.718;21.122;2023-07-09T14:15:42;3.80;;;2.10;;
64498;SDS011;51087;55.718;21.122;2023-07-09T14:18:12;6.15;;;2.50;;
64498;SDS011;51087;55.718;21.122;2023-07-09T14:20:39;3.95;;;2.20;;
64498;SDS011;51087;55.718;21.122;2023-07-09T14:23:05;3.58;;;2.00;;
64498;SDS011;51087;55.718;21.122;2023-07-09T14:25:30;3.30;;;1.90;;
64498;SDS011;51087;55.718;21.122;2023-07-09T14:27:56;3.80;;;2.00;;
64498;SDS011;51087;55.718;21.122;2023-07-09T14:30:23;5.20;;;2.00;;
64498;SDS011;51087;55.718;21.122;2023-07-09T14:32:50;4.13;;;2.08;;
64498;SDS011;51087;55.718;21.122;2023-07-09T14:37:50;6.43;;;2.30;;
64498;SDS011;51087;55.718;21.122;2023-07-09T14:40:18;3.22;;;1.95;;
64498;SDS011;51087;55.718;21.122;2023-07-09T14:42:48;6.03;;;2.30;;
64498;SDS011;51087;55.718;21.122;2023-07-09T14:45:24;4.13;;;2.05;;
64498;SDS011;51087;55.718;21.122;2023-07-09T14:47:51;4.32;;;1.85;;
64498;SDS011;51087;55.718;21.122;2023-07-09T14:50:17;3.65;;;2.03;;
64498;SDS011;51087;55.718;21.122;2023-07-09T14:52:44;4.88;;;2.00;;
64498;SDS011;51087;55.718;21.122;2023-07-09T14:55:18;9.07;;;2.38;;
64498;SDS011;51087;55.718;21.122;2023-07-09T14:57:45;5.22;;;2.13;;
64498;SDS011;51087;55.718;21.122;2023-07-09T15:00:12;5.18;;;2.40;;
64498;SDS011;51087;55.718;21.122;2023-07-09T15:02:43;3.63;;;2.00;;
64498;SDS011;51087;55.718;21.122;2023-07-09T15:05:22;4.30;;;2.10;;
64498;SDS011;51087;55.718;21.122;2023-07-09T15:07:49;4.20;;;1.95;;
64498;SDS011;51087;55.718;21.122;2023-07-09T15:10:16;3.92;;;2.10;;
64498;SDS011;51087;55.718;21.122;2023-07-09T15:12:48;3.42;;;2.03;;
64498;SDS011;51087;55.718;21.122;2023-07-09T15:15:24;4.63;;;2.20;;
64498;SDS011;51087;55.718;21.122;2023-07-09T15:17:52;5.30;;;2.20;;
64498;SDS011;51087;55.718;21.122;2023-07-09T15:20:21;3.88;;;2.42;;
64498;SDS011;51087;55.718;21.122;2023-07-09T15:22:49;3.17;;;2.10;;
64498;SDS011;51087;55.718;21.122;2023-07-09T15:25:20;3.40;;;1.92;;
64498;SDS011;51087;55.718;21.122;2023-07-09T15:27:50;4.75;;;2.50;;
64498;SDS011;51087;55.718;21.122;2023-07-09T15:30:17;5.65;;;2.15;;
64498;SDS011;51087;55.718;21.122;2023-07-09T15:32:46;2.88;;;1.80;;
64498;SDS011;51087;55.718;21.122;2023-07-09T15:35:13;7.57;;;2.22;;
64498;SDS011;51087;55.718;21.122;2023-07-09T15:37:39;4.72;;;2.38;;
64498;SDS011;51087;55.718;21.122;2023-07-09T15:40:13;5.72;;;2.30;;
64498;SDS011;51087;55.718;21.122;2023-07-09T15:42:40;5.40;;;2.30;;
64498;SDS011;51087;55.718;21.122;2023-07-09T15:45:05;4.93;;;2.00;;
64498;SDS011;51087;55.718;21.122;2023-07-09T15:47:31;3.65;;;2.08;;
64498;SDS011;51087;55.718;21.122;2023-07-09T15:49:57;6.18;;;2.25;;
64498;SDS011;51087;55.718;21.122;2023-07-09T15:52:23;3.90;;;2.10;;